createdAt,value
2022-12-11T00:00:37.073Z,72.45
2022-12-11T00:01:39.355Z,72.86
2022-12-11T00:02:41.638Z,72.71
2022-12-11T00:03:44.022Z,72.60
2022-12-11T00:04:46.219Z,72.60
2022-12-11T00:05:48.395Z,72.46
2022-12-11T00:06:50.731Z,72.15
2022-12-11T00:07:52.979Z,72.57
2022-12-11T00:08:55.626Z,72.66
2022-12-11T00:09:58.050Z,72.72
2022-12-11T00:11:00.516Z,72.68
2022-12-11T00:12:02.815Z,72.83
2022-12-11T00:13:05.616Z,73.08
2022-12-11T00:14:07.836Z,73.10
2022-12-11T00:15:10.611Z,72.97
2022-12-11T00:16:13.946Z,72.95
2022-12-11T00:17:17.256Z,73.11
2022-12-11T00:18:19.620Z,73.40
2022-12-11T00:19:21.774Z,73.32
2022-12-11T00:20:24.010Z,73.53
2022-12-11T00:21:26.618Z,73.63
2022-12-11T00:22:30.600Z,73.21
2022-12-11T00:23:34.825Z,73.71
2022-12-11T00:24:37.218Z,73.29
2022-12-11T00:25:47.491Z,73.22
2022-12-11T00:26:49.854Z,73.50
2022-12-11T00:27:52.020Z,73.44
2022-12-11T00:28:56.173Z,73.59
2022-12-11T00:29:58.311Z,73.82
2022-12-11T00:31:04.828Z,73.67
2022-12-11T00:32:07.088Z,73.98
2022-12-11T00:33:10.188Z,73.89
2022-12-11T00:34:12.386Z,73.67
2022-12-11T00:35:14.528Z,73.34
2022-12-11T00:36:25.496Z,73.14
2022-12-11T00:37:28.342Z,73.43
2022-12-11T00:38:30.504Z,72.91
2022-12-11T00:39:32.740Z,73.20
2022-12-11T00:40:36.744Z,73.22
2022-12-11T00:41:39.351Z,73.39
2022-12-11T00:42:41.546Z,73.64
2022-12-11T00:43:44.139Z,73.21
2022-12-11T00:44:46.337Z,73.15
2022-12-11T00:45:48.737Z,73.29
2022-12-11T00:46:51.167Z,73.21
2022-12-11T00:47:53.308Z,72.80
2022-12-11T00:48:55.706Z,73.03
2022-12-11T00:49:57.974Z,73.02
2022-12-11T00:51:00.398Z,73.07
2022-12-11T00:52:02.648Z,73.37
2022-12-11T00:53:06.219Z,73.54
2022-12-11T00:54:08.390Z,73.48
2022-12-11T00:55:11.260Z,73.69
2022-12-11T00:56:17.194Z,73.74
2022-12-11T00:57:19.558Z,73.91
2022-12-11T00:58:22.135Z,73.64
2022-12-11T00:59:24.377Z,73.38
2022-12-11T01:00:27.253Z,73.27
2022-12-11T01:01:29.569Z,73.33
2022-12-11T01:02:32.033Z,73.21
2022-12-11T01:03:34.246Z,73.04
2022-12-11T01:04:37.087Z,72.61
2022-12-11T01:05:39.479Z,72.63
2022-12-11T01:06:41.644Z,73.29
2022-12-11T01:07:43.969Z,73.28
2022-12-11T01:08:46.955Z,73.34
2022-12-11T01:10:08.010Z,73.50
2022-12-11T01:11:12.664Z,73.43
2022-12-11T01:12:15.298Z,73.62
2022-12-11T01:13:17.570Z,73.44
2022-12-11T01:14:19.838Z,73.95
2022-12-11T01:15:24.570Z,73.56
2022-12-11T01:16:26.999Z,73.51
2022-12-11T01:17:29.445Z,73.55
2022-12-11T01:18:31.688Z,73.32
2022-12-11T01:19:34.114Z,73.85
2022-12-11T01:20:39.532Z,74.00
2022-12-11T01:21:41.748Z,73.89
2022-12-11T01:22:43.963Z,73.79
2022-12-11T01:23:46.171Z,73.37
2022-12-11T01:24:48.594Z,73.16
2022-12-11T01:25:50.762Z,73.34
2022-12-11T01:26:52.944Z,73.13
2022-12-11T01:27:56.237Z,72.57
2022-12-11T01:28:58.535Z,72.96
2022-12-11T01:30:00.744Z,73.03
2022-12-11T01:31:03.543Z,72.71
2022-12-11T01:32:05.778Z,72.35
2022-12-11T01:33:08.140Z,72.30
2022-12-11T01:34:10.368Z,72.14
2022-12-11T01:35:13.628Z,71.96
2022-12-11T01:36:19.567Z,72.05
2022-12-11T01:37:21.931Z,72.41
2022-12-11T01:38:24.398Z,72.21
2022-12-11T01:39:26.555Z,72.53
2022-12-11T01:40:29.709Z,72.82
2022-12-11T01:41:32.115Z,72.74
2022-12-11T01:42:34.389Z,72.40
2022-12-11T01:44:07.245Z,72.38
2022-12-11T01:45:21.560Z,72.69
2022-12-11T01:46:24.363Z,72.58
2022-12-11T01:47:26.531Z,73.11
2022-12-11T01:48:31.863Z,73.05
2022-12-11T01:49:34.570Z,72.67
2022-12-11T01:50:47.609Z,72.51
2022-12-11T01:52:07.195Z,72.50
2022-12-11T01:53:14.408Z,72.72
2022-12-11T01:54:19.152Z,72.55
2022-12-11T01:55:21.923Z,73.10
2022-12-11T01:56:24.688Z,72.73
2022-12-11T01:57:26.947Z,72.95
2022-12-11T01:58:40.580Z,72.65
2022-12-11T01:59:46.185Z,72.53
2022-12-11T02:00:48.478Z,73.08
2022-12-11T02:02:02.662Z,73.04
2022-12-11T02:03:05.144Z,73.40
2022-12-11T02:04:09.406Z,73.70
2022-12-11T02:05:12.397Z,73.83
2022-12-11T02:06:38.124Z,74.15
2022-12-11T02:07:46.386Z,73.96
2022-12-11T02:08:48.799Z,74.22
2022-12-11T02:09:51.066Z,73.88
2022-12-11T02:11:10.167Z,72.96
2022-12-11T02:12:41.408Z,73.04
2022-12-11T02:14:02.276Z,72.73
2022-12-11T02:15:32.688Z,73.12
2022-12-11T02:17:00.819Z,73.75
2022-12-11T02:18:23.122Z,74.18
2022-12-11T02:19:54.770Z,74.02
2022-12-11T02:21:15.493Z,73.86
2022-12-11T02:22:47.726Z,73.52
2022-12-11T02:24:05.981Z,73.12
2022-12-11T02:25:46.091Z,73.32
2022-12-11T02:27:18.538Z,73.62
2022-12-11T02:28:38.671Z,73.83
2022-12-11T02:29:51.209Z,74.00
2022-12-11T02:31:26.152Z,73.67
2022-12-11T02:32:31.332Z,73.45
2022-12-11T02:33:42.317Z,73.54
2022-12-11T02:34:58.429Z,73.68
2022-12-11T02:36:02.609Z,73.16
2022-12-11T02:37:09.921Z,72.63
2022-12-11T02:38:19.769Z,72.58
2022-12-11T02:39:25.256Z,72.58
2022-12-11T02:40:32.757Z,72.85
2022-12-11T02:41:35.598Z,73.27
2022-12-11T02:42:42.443Z,73.72
2022-12-11T02:43:45.645Z,73.63
2022-12-11T02:44:50.668Z,73.56
2022-12-11T02:45:53.992Z,73.53
2022-12-11T02:46:58.301Z,73.94
2022-12-11T02:48:03.800Z,73.82
2022-12-11T02:49:08.065Z,73.49
2022-12-11T02:50:15.210Z,73.50
2022-12-11T02:51:21.493Z,73.70
2022-12-11T02:52:26.947Z,73.01
2022-12-11T02:53:32.347Z,73.09
2022-12-11T02:54:37.692Z,73.29
2022-12-11T02:55:42.176Z,73.70
2022-12-11T02:57:11.398Z,73.37
2022-12-11T02:58:26.002Z,73.80
2022-12-11T02:59:43.746Z,73.28
2022-12-11T03:00:47.047Z,73.17
2022-12-11T03:01:49.460Z,73.27
2022-12-11T03:02:51.823Z,73.25
2022-12-11T03:03:55.558Z,73.20
2022-12-11T03:04:59.478Z,73.41
2022-12-11T03:06:01.834Z,73.96
2022-12-11T03:07:12.412Z,73.65
2022-12-11T03:08:17.541Z,73.94
2022-12-11T03:09:20.871Z,74.02
2022-12-11T03:10:23.879Z,74.02
2022-12-11T03:11:26.483Z,74.31
2022-12-11T03:12:31.469Z,74.07
2022-12-11T03:13:34.218Z,74.32
2022-12-11T03:14:38.742Z,74.26
2022-12-11T03:15:44.001Z,74.61
2022-12-11T03:16:50.941Z,74.64
2022-12-11T03:18:09.779Z,74.87
2022-12-11T03:19:26.978Z,75.01
2022-12-11T03:20:44.194Z,74.98
2022-12-11T03:21:54.622Z,75.32
2022-12-11T03:23:09.827Z,75.96
2022-12-11T03:24:28.623Z,76.00
2022-12-11T03:25:40.236Z,76.24
2022-12-11T03:26:54.487Z,75.99
2022-12-11T03:28:07.098Z,76.19
2022-12-11T03:29:20.806Z,75.94
2022-12-11T03:30:24.937Z,76.06
2022-12-11T03:31:31.913Z,76.57
2022-12-11T03:33:19.260Z,76.17
2022-12-11T03:34:31.982Z,75.82
2022-12-11T03:35:39.195Z,75.69
2022-12-11T03:36:43.094Z,75.84
2022-12-11T03:37:48.239Z,75.77
2022-12-11T03:38:56.414Z,75.63
2022-12-11T03:40:04.563Z,75.23
2022-12-11T03:41:08.976Z,74.93
2022-12-11T03:42:15.983Z,75.13
2022-12-11T03:43:20.161Z,75.16
2022-12-11T03:44:24.292Z,75.17
2022-12-11T03:45:29.750Z,74.88
2022-12-11T03:46:35.302Z,75.04
2022-12-11T03:47:40.721Z,75.00
2022-12-11T03:48:46.829Z,75.22
2022-12-11T03:49:51.571Z,75.35
2022-12-11T03:50:54.607Z,75.34
2022-12-11T03:51:58.070Z,75.10
2022-12-11T03:53:02.231Z,75.21
2022-12-11T03:54:04.969Z,75.16
2022-12-11T03:55:09.313Z,74.99
2022-12-11T03:56:15.865Z,75.14
2022-12-11T03:57:22.607Z,75.03
2022-12-11T03:58:25.068Z,75.19
2022-12-11T03:59:27.494Z,75.48
2022-12-11T04:00:29.911Z,75.54
2022-12-11T04:01:32.115Z,75.30
2022-12-11T04:02:34.315Z,75.29
2022-12-11T04:03:37.088Z,75.42
2022-12-11T04:04:42.162Z,75.64
2022-12-11T04:05:50.740Z,75.43
2022-12-11T04:06:53.206Z,75.62
2022-12-11T04:07:55.480Z,75.63
2022-12-11T04:08:57.836Z,75.21
2022-12-11T04:10:01.193Z,75.48
2022-12-11T04:11:23.020Z,75.46
2022-12-11T04:12:25.460Z,75.47
2022-12-11T04:13:27.632Z,75.23
2022-12-11T04:14:48.732Z,75.22
2022-12-11T04:15:50.965Z,75.17
2022-12-11T04:16:53.618Z,75.02
2022-12-11T04:18:14.097Z,75.30
2022-12-11T04:19:35.586Z,75.40
2022-12-11T04:20:56.224Z,75.55
2022-12-11T04:22:17.404Z,75.33
2022-12-11T04:23:38.707Z,75.39
2022-12-11T04:24:41.125Z,75.63
2022-12-11T04:25:43.297Z,75.74
2022-12-11T04:26:47.272Z,76.20
2022-12-11T04:27:49.543Z,76.10
2022-12-11T04:28:52.091Z,76.20
2022-12-11T04:29:54.252Z,75.92
2022-12-11T04:30:56.470Z,75.89
2022-12-11T04:31:58.967Z,75.89
2022-12-11T04:33:01.832Z,76.29
2022-12-11T04:34:04.024Z,76.28
2022-12-11T04:35:09.139Z,76.50
2022-12-11T04:36:12.643Z,76.49
2022-12-11T04:37:15.003Z,76.57
2022-12-11T04:38:17.193Z,76.54
2022-12-11T04:39:19.420Z,77.07
2022-12-11T04:40:22.252Z,76.91
2022-12-11T04:41:24.554Z,76.98
2022-12-11T04:42:26.819Z,77.02
2022-12-11T04:43:29.584Z,77.30
2022-12-11T04:44:34.083Z,77.21
2022-12-11T04:45:36.316Z,77.20
2022-12-11T04:46:39.054Z,77.40
2022-12-11T04:47:41.732Z,77.02
2022-12-11T04:48:44.920Z,77.05
2022-12-11T04:49:47.456Z,76.83
2022-12-11T04:50:49.889Z,76.82
2022-12-11T04:51:52.067Z,76.64
2022-12-11T04:52:55.859Z,76.62
2022-12-11T04:53:59.414Z,76.64
2022-12-11T04:55:01.731Z,77.09
2022-12-11T04:56:09.115Z,76.87
2022-12-11T04:57:11.406Z,76.91
2022-12-11T04:58:13.861Z,76.71
2022-12-11T04:59:16.212Z,76.73
2022-12-11T05:00:18.674Z,76.73
2022-12-11T05:01:22.688Z,76.45
2022-12-11T05:02:25.166Z,76.97
2022-12-11T05:03:27.328Z,76.90
2022-12-11T05:04:34.382Z,77.20
2022-12-11T05:05:36.589Z,77.68
2022-12-11T05:06:39.209Z,77.61
2022-12-11T05:07:41.960Z,77.67
2022-12-11T05:08:45.404Z,78.07
2022-12-11T05:09:47.603Z,77.94
2022-12-11T05:11:01.112Z,77.78
2022-12-11T05:12:03.715Z,78.09
2022-12-11T05:13:05.935Z,78.11
2022-12-11T05:14:08.268Z,77.93
2022-12-11T05:15:11.015Z,77.75
2022-12-11T05:16:16.194Z,77.49
2022-12-11T05:17:18.591Z,77.18
2022-12-11T05:18:21.313Z,77.38
2022-12-11T05:19:23.468Z,77.33
2022-12-11T05:20:25.854Z,77.25
2022-12-11T05:21:34.641Z,77.67
2022-12-11T05:22:37.983Z,77.42
2022-12-11T05:23:41.568Z,77.29
2022-12-11T05:24:45.896Z,77.00
2022-12-11T05:25:56.400Z,77.59
2022-12-11T05:26:58.759Z,77.79
2022-12-11T05:28:00.918Z,77.56
2022-12-11T05:29:03.517Z,77.58
2022-12-11T05:30:06.589Z,78.03
2022-12-11T05:31:17.312Z,78.11
2022-12-11T05:32:19.594Z,77.73
2022-12-11T05:33:21.721Z,77.89
2022-12-11T05:34:23.894Z,77.92
2022-12-11T05:35:26.269Z,77.92
2022-12-11T05:36:32.266Z,77.85
2022-12-11T05:37:34.749Z,77.82
2022-12-11T05:38:37.139Z,77.68
2022-12-11T05:39:39.330Z,77.88
2022-12-11T05:40:41.990Z,77.78
2022-12-11T05:41:44.465Z,77.72
2022-12-11T05:42:46.642Z,78.12
2022-12-11T05:43:49.065Z,78.07
2022-12-11T05:44:51.313Z,78.35
2022-12-11T05:45:54.105Z,78.48
2022-12-11T05:46:56.744Z,78.47
2022-12-11T05:47:59.011Z,77.92
2022-12-11T05:49:01.958Z,78.40
2022-12-11T05:50:04.488Z,78.56
2022-12-11T05:51:08.321Z,78.25
2022-12-11T05:52:10.689Z,78.02
2022-12-11T05:53:12.922Z,78.34
2022-12-11T05:54:15.142Z,78.83
2022-12-11T05:55:17.423Z,78.49
2022-12-11T05:56:31.640Z,78.76
2022-12-11T05:57:34.001Z,78.81
2022-12-11T05:58:36.482Z,78.88
2022-12-11T05:59:38.712Z,78.87
2022-12-11T06:00:44.461Z,79.05
2022-12-11T06:01:46.825Z,78.94
2022-12-11T06:02:49.694Z,78.92
2022-12-11T06:03:53.143Z,79.11
2022-12-11T06:04:55.360Z,79.09
2022-12-11T06:05:57.725Z,79.21
2022-12-11T06:06:59.930Z,79.55
2022-12-11T06:08:02.500Z,79.15
2022-12-11T06:09:05.646Z,79.07
2022-12-11T06:10:08.386Z,78.99
2022-12-11T06:11:14.118Z,78.94
2022-12-11T06:12:16.317Z,79.27
2022-12-11T06:13:18.913Z,79.17
2022-12-11T06:14:21.140Z,79.20
2022-12-11T06:15:23.638Z,79.58
2022-12-11T06:16:26.190Z,79.91
2022-12-11T06:17:28.583Z,80.28
2022-12-11T06:18:31.605Z,80.23
2022-12-11T06:19:36.916Z,80.46
2022-12-11T06:20:39.861Z,80.75
2022-12-11T06:21:42.113Z,80.66
2022-12-11T06:22:44.495Z,81.02
2022-12-11T06:23:48.522Z,80.84
2022-12-11T06:24:50.697Z,80.23
2022-12-11T06:25:53.430Z,80.25
2022-12-11T06:26:55.832Z,80.28
2022-12-11T06:27:58.083Z,80.38
2022-12-11T06:29:00.259Z,80.33
2022-12-11T06:30:02.813Z,80.38
2022-12-11T06:31:06.002Z,80.21
2022-12-11T06:32:08.392Z,80.45
2022-12-11T06:33:10.947Z,80.34
2022-12-11T06:34:13.836Z,80.05
2022-12-11T06:35:16.439Z,79.73
2022-12-11T06:36:22.431Z,79.66
2022-12-11T06:37:24.661Z,79.57
2022-12-11T06:38:27.268Z,79.96
2022-12-11T06:39:29.492Z,79.75
2022-12-11T06:40:31.951Z,79.64
2022-12-11T06:41:34.169Z,79.33
2022-12-11T06:42:36.417Z,79.42
2022-12-11T06:43:40.663Z,79.42
2022-12-11T06:44:42.824Z,79.50
2022-12-11T06:45:45.208Z,79.53
2022-12-11T06:46:47.508Z,79.15
2022-12-11T06:47:49.869Z,79.46
2022-12-11T06:48:52.525Z,79.01
2022-12-11T06:49:54.836Z,79.52
2022-12-11T06:50:57.897Z,80.45
2022-12-11T06:52:00.301Z,80.27
2022-12-11T06:53:02.771Z,79.58
2022-12-11T06:54:05.232Z,79.33
2022-12-11T06:55:07.822Z,79.26
2022-12-11T06:56:13.552Z,79.23
2022-12-11T06:57:16.410Z,78.75
2022-12-11T06:58:19.003Z,78.63
2022-12-11T06:59:21.252Z,78.50
2022-12-11T07:00:23.612Z,78.25
2022-12-11T07:01:28.223Z,78.14
2022-12-11T07:02:30.725Z,77.88
2022-12-11T07:03:33.686Z,78.46
2022-12-11T07:04:35.896Z,78.29
2022-12-11T07:05:38.270Z,77.94
2022-12-11T07:06:40.470Z,78.12
2022-12-11T07:07:42.845Z,78.54
2022-12-11T07:08:45.597Z,78.27
2022-12-11T07:09:47.823Z,78.87
2022-12-11T07:10:50.252Z,79.21
2022-12-11T07:11:53.252Z,78.98
2022-12-11T07:12:56.027Z,79.28
2022-12-11T07:14:02.796Z,79.20
2022-12-11T07:15:05.462Z,79.32
2022-12-11T07:16:10.956Z,79.02
2022-12-11T07:17:13.466Z,79.14
2022-12-11T07:18:15.928Z,78.82
2022-12-11T07:19:18.641Z,78.78
2022-12-11T07:20:20.899Z,78.46
2022-12-11T07:21:23.204Z,78.45
2022-12-11T07:22:25.391Z,78.60
2022-12-11T07:23:44.652Z,78.20
2022-12-11T07:24:46.853Z,78.22
2022-12-11T07:25:49.370Z,78.04
2022-12-11T07:26:51.600Z,78.25
2022-12-11T07:27:53.948Z,78.01
2022-12-11T07:29:00.884Z,78.01
2022-12-11T07:30:03.365Z,78.06
2022-12-11T07:31:13.280Z,78.43
2022-12-11T07:32:15.729Z,78.15
2022-12-11T07:33:18.073Z,78.50
2022-12-11T07:34:20.546Z,78.61
2022-12-11T07:35:22.775Z,78.77
2022-12-11T07:36:26.126Z,78.61
2022-12-11T07:37:28.345Z,78.88
2022-12-11T07:38:30.847Z,78.91
2022-12-11T07:39:33.209Z,78.57
2022-12-11T07:40:35.436Z,78.37
2022-12-11T07:41:38.869Z,78.54
2022-12-11T07:42:46.414Z,78.80
2022-12-11T07:43:49.515Z,78.62
2022-12-11T07:44:52.334Z,78.77
2022-12-11T07:45:54.558Z,79.18
2022-12-11T07:46:56.950Z,78.97
2022-12-11T07:47:59.243Z,79.04
2022-12-11T07:49:01.888Z,79.18
2022-12-11T07:50:04.238Z,79.27
2022-12-11T07:51:18.984Z,78.78
2022-12-11T07:52:21.188Z,78.91
2022-12-11T07:53:23.760Z,78.77
2022-12-11T07:54:26.220Z,78.77
2022-12-11T07:55:28.581Z,78.86
2022-12-11T07:56:31.787Z,78.68
2022-12-11T07:57:33.993Z,78.40
2022-12-11T07:58:38.915Z,78.31
2022-12-11T07:59:41.911Z,78.17
2022-12-11T08:00:45.340Z,78.15
2022-12-11T08:01:47.876Z,77.67
2022-12-11T08:02:50.080Z,77.93
2022-12-11T08:03:53.340Z,77.85
2022-12-11T08:04:55.680Z,77.79
2022-12-11T08:05:57.855Z,77.67
2022-12-11T08:07:00.255Z,77.32
2022-12-11T08:08:02.719Z,77.41
2022-12-11T08:09:07.274Z,77.82
2022-12-11T08:10:09.841Z,78.11
2022-12-11T08:11:14.563Z,78.15
2022-12-11T08:12:16.990Z,78.13
2022-12-11T08:13:19.177Z,78.12
2022-12-11T08:14:21.389Z,78.17
2022-12-11T08:15:23.560Z,78.10
2022-12-11T08:16:26.940Z,77.91
2022-12-11T08:17:32.802Z,77.68
2022-12-11T08:18:39.070Z,77.75
2022-12-11T08:19:41.413Z,77.84
2022-12-11T08:20:43.785Z,77.39
2022-12-11T08:21:46.942Z,77.51
2022-12-11T08:22:50.742Z,77.41
2022-12-11T08:23:55.033Z,77.52
2022-12-11T08:24:57.234Z,77.28
2022-12-11T08:26:01.636Z,77.14
2022-12-11T08:27:04.024Z,76.86
2022-12-11T08:28:06.361Z,77.15
2022-12-11T08:29:08.518Z,76.70
2022-12-11T08:30:11.284Z,76.51
2022-12-11T08:31:14.972Z,76.46
2022-12-11T08:32:18.049Z,76.63
2022-12-11T08:33:20.603Z,76.45
2022-12-11T08:34:22.792Z,76.51
2022-12-11T08:35:25.705Z,76.68
2022-12-11T08:36:28.202Z,76.73
2022-12-11T08:37:30.827Z,76.55
2022-12-11T08:38:34.180Z,76.07
2022-12-11T08:39:36.415Z,76.56
2022-12-11T08:40:38.828Z,76.51
2022-12-11T08:41:41.038Z,76.55
2022-12-11T08:42:43.604Z,76.58
2022-12-11T08:43:46.067Z,76.75
2022-12-11T08:44:48.228Z,76.86
2022-12-11T08:45:50.808Z,77.07
2022-12-11T08:46:53.020Z,77.60
2022-12-11T08:47:55.384Z,77.53
2022-12-11T08:48:58.458Z,77.63
2022-12-11T08:50:00.829Z,77.67
2022-12-11T08:51:05.884Z,77.29
2022-12-11T08:52:08.049Z,76.74
2022-12-11T08:53:10.604Z,76.90
2022-12-11T08:54:12.938Z,76.78
2022-12-11T08:55:15.211Z,76.60
2022-12-11T08:56:20.449Z,76.48
2022-12-11T08:57:22.658Z,76.57
2022-12-11T08:58:25.163Z,76.45
2022-12-11T08:59:27.411Z,76.37
2022-12-11T09:00:29.575Z,76.79
2022-12-11T09:01:32.709Z,76.58
2022-12-11T09:02:35.250Z,76.34
2022-12-11T09:03:38.759Z,76.65
2022-12-11T09:04:41.004Z,77.01
2022-12-11T09:05:43.214Z,76.78
2022-12-11T09:06:45.454Z,76.89
2022-12-11T09:07:47.687Z,76.86
2022-12-11T09:08:52.835Z,77.21
2022-12-11T09:09:55.519Z,76.87
2022-12-11T09:11:05.807Z,76.69
2022-12-11T09:12:07.991Z,76.80
2022-12-11T09:13:10.506Z,76.93
2022-12-11T09:14:12.698Z,77.18
2022-12-11T09:15:14.855Z,77.20
2022-12-11T09:16:19.503Z,76.32
2022-12-11T09:17:21.674Z,76.47
2022-12-11T09:18:24.278Z,77.19
2022-12-11T09:19:31.944Z,76.95
2022-12-11T09:20:34.499Z,77.39
2022-12-11T09:21:36.916Z,77.65
2022-12-11T09:22:39.775Z,78.05
2022-12-11T09:23:42.200Z,78.46
2022-12-11T09:24:44.412Z,78.54
2022-12-11T09:25:46.586Z,78.52
2022-12-11T09:26:48.947Z,78.12
2022-12-11T09:27:51.145Z,77.98
2022-12-11T09:28:54.030Z,78.11
2022-12-11T09:29:56.294Z,77.66
2022-12-11T09:30:58.495Z,77.81
2022-12-11T09:32:00.865Z,77.39
2022-12-11T09:33:03.013Z,77.64
2022-12-11T09:34:08.522Z,78.25
2022-12-11T09:35:11.355Z,78.24
2022-12-11T09:36:14.240Z,78.50
2022-12-11T09:37:16.525Z,78.39
2022-12-11T09:38:18.819Z,78.45
2022-12-11T09:39:21.452Z,78.58
2022-12-11T09:40:23.891Z,78.05
2022-12-11T09:41:36.893Z,77.89
2022-12-11T09:43:17.829Z,78.29
2022-12-11T09:45:10.261Z,77.98
2022-12-11T09:46:17.173Z,78.39
2022-12-11T09:47:26.127Z,78.21
2022-12-11T09:48:33.031Z,77.82
2022-12-11T09:49:41.142Z,78.01
2022-12-11T09:50:43.789Z,78.06
2022-12-11T09:51:52.088Z,77.57
2022-12-11T09:53:09.441Z,77.53
2022-12-11T09:54:14.170Z,77.60
2022-12-11T09:55:24.885Z,77.40
2022-12-11T09:56:39.412Z,77.35
2022-12-11T09:58:05.242Z,77.11
2022-12-11T09:59:49.239Z,77.35
2022-12-11T10:01:25.323Z,77.41
2022-12-11T10:02:43.558Z,77.04
2022-12-11T10:03:57.748Z,77.12
2022-12-11T10:05:28.549Z,77.56
2022-12-11T10:06:37.165Z,77.91
2022-12-11T10:07:55.008Z,77.78
2022-12-11T10:09:11.120Z,77.88
2022-12-11T10:10:16.525Z,77.70
2022-12-11T10:11:36.856Z,77.87
2022-12-11T10:13:00.404Z,77.82
2022-12-11T10:14:11.624Z,78.26
2022-12-11T10:15:51.148Z,78.95
2022-12-11T10:17:40.095Z,78.97
2022-12-11T10:18:42.516Z,78.98
2022-12-11T10:19:45.341Z,78.48
2022-12-11T10:20:49.074Z,78.39
2022-12-11T10:21:53.080Z,78.55
2022-12-11T10:22:57.068Z,78.79
2022-12-11T10:24:03.616Z,78.35
2022-12-11T10:25:11.097Z,78.19
2022-12-11T10:26:20.174Z,78.30
2022-12-11T10:27:26.962Z,77.88
2022-12-11T10:28:29.479Z,78.09
2022-12-11T10:29:31.693Z,77.97
2022-12-11T10:30:38.187Z,78.23
2022-12-11T10:31:52.483Z,77.59
2022-12-11T10:33:12.077Z,77.30
2022-12-11T10:34:35.437Z,76.92
2022-12-11T10:35:52.416Z,77.08
2022-12-11T10:37:00.271Z,77.62
2022-12-11T10:38:13.725Z,77.61
2022-12-11T10:39:18.958Z,77.89
2022-12-11T10:40:24.329Z,77.85
2022-12-11T10:41:41.867Z,77.70
2022-12-11T10:42:53.199Z,77.42
2022-12-11T10:43:55.779Z,77.51
2022-12-11T10:45:03.397Z,77.10
2022-12-11T10:46:07.219Z,76.55
2022-12-11T10:47:18.584Z,76.04
2022-12-11T10:48:22.053Z,75.84
2022-12-11T10:49:26.869Z,75.39
2022-12-11T10:50:29.068Z,75.82
2022-12-11T10:51:31.174Z,76.21
2022-12-11T10:52:42.518Z,76.09
2022-12-11T10:53:50.996Z,76.38
2022-12-11T10:55:00.687Z,76.93
2022-12-11T10:56:02.943Z,76.69
2022-12-11T10:57:07.465Z,76.51
2022-12-11T10:58:17.922Z,76.55
2022-12-11T10:59:31.272Z,77.01
2022-12-11T11:00:41.267Z,76.85
2022-12-11T11:01:47.403Z,77.04
2022-12-11T11:02:49.725Z,77.02
2022-12-11T11:04:07.095Z,76.94
2022-12-11T11:05:27.047Z,76.96
2022-12-11T11:06:29.573Z,77.11
2022-12-11T11:07:33.189Z,77.66
2022-12-11T11:08:42.541Z,77.83
2022-12-11T11:09:45.077Z,78.34
2022-12-11T11:11:01.315Z,78.22
2022-12-11T11:12:07.915Z,78.18
2022-12-11T11:13:13.400Z,78.29
2022-12-11T11:14:21.370Z,78.25
2022-12-11T11:15:27.923Z,78.08
2022-12-11T11:16:30.439Z,77.99
2022-12-11T11:17:49.797Z,77.91
2022-12-11T11:18:58.253Z,77.82
2022-12-11T11:20:11.997Z,77.91
2022-12-11T11:21:19.581Z,78.02
2022-12-11T11:22:22.084Z,78.28
2022-12-11T11:23:25.335Z,78.23
2022-12-11T11:24:35.418Z,78.46
2022-12-11T11:25:38.039Z,77.66
2022-12-11T11:27:11.685Z,76.91
2022-12-11T11:28:17.916Z,77.37
2022-12-11T11:29:30.859Z,77.03
2022-12-11T11:30:39.730Z,77.33
2022-12-11T11:31:42.372Z,78.23
2022-12-11T11:32:44.805Z,77.67
2022-12-11T11:33:57.339Z,77.82
2022-12-11T11:35:11.900Z,77.79
2022-12-11T11:36:26.208Z,77.78
2022-12-11T11:37:33.291Z,77.69
2022-12-11T11:38:47.091Z,77.69
2022-12-11T11:39:52.877Z,77.74
2022-12-11T11:41:04.217Z,77.60
2022-12-11T11:42:18.603Z,77.57
2022-12-11T11:43:34.487Z,77.90
2022-12-11T11:44:47.105Z,77.50
2022-12-11T11:45:59.797Z,77.63
2022-12-11T11:47:17.225Z,77.16
2022-12-11T11:48:44.213Z,77.05
2022-12-11T11:50:12.116Z,76.88
2022-12-11T11:51:36.066Z,76.64
2022-12-11T11:52:46.608Z,76.23
2022-12-11T11:53:51.605Z,76.78
2022-12-11T11:55:06.618Z,76.40
2022-12-11T11:56:31.377Z,76.49
2022-12-11T11:57:55.631Z,76.14
2022-12-11T11:59:03.278Z,76.16
2022-12-11T12:00:16.932Z,76.43
2022-12-11T12:01:20.638Z,77.18
2022-12-11T12:02:22.901Z,77.23
2022-12-11T12:03:26.206Z,76.76
2022-12-11T12:04:33.797Z,76.83
2022-12-11T12:06:15.417Z,76.31
2022-12-11T12:07:17.614Z,76.09
2022-12-11T12:08:55.476Z,75.99
2022-12-11T12:10:04.008Z,76.07
2022-12-11T12:11:09.090Z,75.64
2022-12-11T12:12:42.541Z,75.15
2022-12-11T12:14:03.451Z,75.02
2022-12-11T12:15:29.575Z,74.74
2022-12-11T12:16:53.429Z,75.17
2022-12-11T12:18:18.672Z,75.13
2022-12-11T12:19:48.978Z,75.11
2022-12-11T12:21:00.286Z,75.23
2022-12-11T12:22:17.257Z,75.36
2022-12-11T12:23:41.873Z,75.84
2022-12-11T12:24:59.491Z,75.49
2022-12-11T12:26:16.351Z,75.70
2022-12-11T12:27:57.906Z,75.27
2022-12-11T12:29:18.190Z,75.38
2022-12-11T12:30:23.462Z,75.68
2022-12-11T12:31:50.569Z,74.78
2022-12-11T12:35:13.769Z,74.83
2022-12-11T12:36:19.818Z,75.11
2022-12-11T12:37:45.210Z,75.13
2022-12-11T12:38:55.742Z,75.47
2022-12-11T12:40:16.697Z,75.53
2022-12-11T12:41:30.189Z,75.96
2022-12-11T12:43:04.499Z,76.00
2022-12-11T12:44:16.993Z,76.22
2022-12-11T12:45:36.985Z,76.28
2022-12-11T12:46:39.717Z,75.94
2022-12-11T12:47:53.084Z,75.61
2022-12-11T12:48:58.812Z,75.72
2022-12-11T12:50:02.730Z,76.00
2022-12-11T12:51:06.852Z,76.53
2022-12-11T12:52:26.077Z,76.80
2022-12-11T12:53:33.934Z,76.34
2022-12-11T12:54:38.122Z,76.29
2022-12-11T12:55:40.642Z,75.93
2022-12-11T12:56:45.126Z,76.16
2022-12-11T12:58:00.581Z,75.74
2022-12-11T12:59:05.447Z,75.80
2022-12-11T13:00:13.344Z,75.65
2022-12-11T13:01:22.701Z,75.76
2022-12-11T13:02:25.615Z,75.51
2022-12-11T13:03:35.824Z,75.53
2022-12-11T13:04:59.155Z,76.04
2022-12-11T13:06:07.212Z,75.86
2022-12-11T13:07:30.081Z,75.93
2022-12-11T13:08:47.176Z,75.54
2022-12-11T13:09:58.405Z,75.52
2022-12-11T13:11:07.416Z,74.99
2022-12-11T13:12:15.717Z,75.22
2022-12-11T13:14:07.694Z,75.24
2022-12-11T13:15:34.280Z,74.54
2022-12-11T13:16:39.475Z,74.37
2022-12-11T13:17:41.861Z,74.76
2022-12-11T13:18:47.704Z,74.86
2022-12-11T13:19:57.481Z,74.81
2022-12-11T13:20:59.821Z,74.74
2022-12-11T13:22:20.308Z,74.62
2022-12-11T13:23:40.244Z,75.23
2022-12-11T13:24:59.813Z,74.79
2022-12-11T13:26:05.166Z,75.01
2022-12-11T13:27:25.228Z,75.11
2022-12-11T13:28:39.306Z,75.02
2022-12-11T13:29:42.650Z,74.81
2022-12-11T13:30:45.342Z,74.35
2022-12-11T13:31:57.886Z,74.46
2022-12-11T13:33:07.403Z,74.52
2022-12-11T13:34:18.666Z,74.11
2022-12-11T13:35:22.067Z,74.19
2022-12-11T13:36:30.095Z,74.25
2022-12-11T13:37:39.796Z,74.37
2022-12-11T13:38:53.576Z,74.49
2022-12-11T13:40:00.931Z,74.68
2022-12-11T13:41:09.939Z,75.05
2022-12-11T13:42:48.851Z,75.39
2022-12-11T13:43:52.584Z,75.54
2022-12-11T13:44:55.424Z,76.01
2022-12-11T13:46:03.562Z,75.96
2022-12-11T13:47:11.798Z,76.20
2022-12-11T13:48:51.683Z,76.41
2022-12-11T13:49:59.735Z,76.07
2022-12-11T13:51:02.628Z,76.18
2022-12-11T13:52:08.233Z,76.54
2022-12-11T13:53:15.855Z,76.77
2022-12-11T13:54:19.463Z,76.83
2022-12-11T13:55:27.988Z,76.34
2022-12-11T13:56:30.429Z,76.39
2022-12-11T13:57:32.686Z,76.26
2022-12-11T13:58:38.426Z,76.22
2022-12-11T13:59:43.420Z,76.20
2022-12-11T14:00:54.474Z,76.51
2022-12-11T14:02:15.665Z,76.53
2022-12-11T14:03:18.965Z,76.22
2022-12-11T14:04:22.661Z,76.47
2022-12-11T14:05:28.565Z,76.02
2022-12-11T14:06:36.108Z,75.51
2022-12-11T14:07:50.248Z,75.83
2022-12-11T14:08:55.416Z,75.62
2022-12-11T14:10:22.147Z,75.30
2022-12-11T14:11:31.374Z,75.26
2022-12-11T14:12:34.041Z,74.70
2022-12-11T14:13:39.934Z,75.02
2022-12-11T14:14:51.534Z,75.38
2022-12-11T14:15:55.261Z,75.34
2022-12-11T14:16:57.666Z,75.62
2022-12-11T14:18:01.119Z,75.73
2022-12-11T14:19:11.070Z,75.43
2022-12-11T14:20:34.115Z,75.03
2022-12-11T14:21:37.436Z,75.48
2022-12-11T14:22:39.652Z,75.55
2022-12-11T14:23:50.938Z,75.56
2022-12-11T14:24:56.548Z,75.27
2022-12-11T14:26:04.234Z,75.83
2022-12-11T14:27:16.839Z,75.66